Time;durP1;ratioP1;P1;durP2;ratioP2;P2;SDS_P1;SDS_P2;PMS_P1;PMS_P2;Temp;Humidity;BMP_temperature;BMP_pressure;BME280_temperature;BME280_humidity;BME280_pressure;Samples;Min_cycle;Max_cycle;Signal;HPM_P1;HPM_P2
2023/04/24 00:01:00;;;;;;;2.38;1.73;;;14.40;99.90;;;;;;5058032;28;20041;-54
2023/04/24 00:03:27;;;;;;;1.42;1.13;;;14.50;99.90;;;;;;5076441;28;20040;-55
2023/04/24 00:05:54;;;;;;;2.72;2.00;;;14.40;99.90;;;;;;5076244;28;20479;-53
2023/04/24 00:08:20;;;;;;;2.30;1.83;;;14.40;99.90;;;;;;5049414;28;20045;-55
2023/04/24 00:10:46;;;;;;;2.53;1.77;;;14.40;99.90;;;;;;5056753;28;20029;-54
2023/04/24 00:13:12;;;;;;;3.83;1.80;;;14.40;99.90;;;;;;5056405;28;20119;-54
2023/04/24 00:15:38;;;;;;;3.50;2.33;;;14.40;99.90;;;;;;5021165;28;20117;-54
2023/04/24 00:18:03;;;;;;;1.67;1.38;;;14.30;99.90;;;;;;5056154;28;20044;-53
2023/04/24 00:20:29;;;;;;;1.95;1.73;;;14.20;99.90;;;;;;5004656;28;20041;-55
2023/04/24 00:22:55;;;;;;;4.25;2.05;;;14.10;99.90;;;;;;4988775;28;20043;-55
2023/04/24 00:25:21;;;;;;;3.42;2.20;;;14.10;99.90;;;;;;5056110;28;20098;-54
2023/04/24 00:27:47;;;;;;;3.25;2.08;;;14.10;99.90;;;;;;5056075;28;20456;-53
2023/04/24 00:30:12;;;;;;;5.20;2.20;;;14.10;99.90;;;;;;5021091;28;20037;-53
2023/04/24 00:32:38;;;;;;;2.53;2.30;;;14.00;99.90;;;;;;5055807;28;20031;-54
2023/04/24 00:35:05;;;;;;;5.25;2.20;;;14.00;99.90;;;;;;5055899;28;20032;-54
2023/04/24 00:37:31;;;;;;;2.88;1.80;;;14.00;99.90;;;;;;5055803;28;20036;-53
2023/04/24 00:39:57;;;;;;;1.55;1.33;;;14.00;99.90;;;;;;5055719;28;20086;-56
2023/04/24 00:42:23;;;;;;;2.63;1.52;;;14.00;99.90;;;;;;5020933;28;20037;-54
2023/04/24 00:44:49;;;;;;;2.60;1.80;;;14.00;99.90;;;;;;5055789;28;20040;-55
2023/04/24 00:47:15;;;;;;;1.75;1.48;;;14.10;99.90;;;;;;5004377;28;20044;-53
2023/04/24 00:49:41;;;;;;;3.67;2.05;;;14.20;99.90;;;;;;5055709;28;20503;-55
2023/04/24 00:52:08;;;;;;;2.38;2.05;;;14.30;99.90;;;;;;5020598;28;20064;-56
2023/04/24 00:54:35;;;;;;;2.55;2.08;;;14.30;99.90;;;;;;5055497;28;20040;-54
2023/04/24 00:57:02;;;;;;;1.95;1.75;;;14.20;99.90;;;;;;5055512;28;20071;-54
2023/04/24 00:59:28;;;;;;;4.43;2.40;;;14.00;99.90;;;;;;5055646;28;20512;-53
2023/04/24 01:01:55;;;;;;;2.90;1.98;;;13.80;99.90;;;;;;5020510;28;20112;-55
2023/04/24 01:04:21;;;;;;;3.65;2.72;;;13.80;99.90;;;;;;5055268;28;20036;-55
2023/04/24 01:06:49;;;;;;;4.38;3.00;;;13.80;99.90;;;;;;5003654;28;20048;-53
2023/04/24 01:09:17;;;;;;;5.22;2.28;;;13.80;99.90;;;;;;5055748;28;20025;-55
2023/04/24 01:11:43;;;;;;;3.25;2.25;;;13.90;99.90;;;;;;5055133;28;20040;-55
2023/04/24 01:14:09;;;;;;;2.40;2.08;;;14.00;99.90;;;;;;5055005;28;20492;-53
2023/04/24 01:16:38;;;;;;;2.85;2.13;;;14.00;99.90;;;;;;5013266;28;20038;-53
2023/04/24 01:19:05;;;;;;;2.90;2.20;;;14.00;99.90;;;;;;5013432;28;20073;-54
2023/04/24 01:21:36;;;;;;;2.40;1.90;;;14.00;99.90;;;;;;5013161;28;20472;-54
2023/04/24 01:24:03;;;;;;;3.07;1.93;;;13.70;99.90;;;;;;4996788;28;20069;-54
2023/04/24 01:26:29;;;;;;;2.55;1.73;;;13.70;99.90;;;;;;5013025;28;20042;-55
2023/04/24 01:28:56;;;;;;;2.38;1.95;;;13.60;99.90;;;;;;5013242;28;20591;-54
2023/04/24 01:31:22;;;;;;;4.43;1.85;;;13.50;99.90;;;;;;5013397;28;20098;-54
2023/04/24 01:33:48;;;;;;;3.55;1.92;;;13.50;99.90;;;;;;4980187;28;20469;-53
2023/04/24 01:36:16;;;;;;;3.85;2.42;;;13.50;99.90;;;;;;5012790;28;20030;-54
2023/04/24 01:38:41;;;;;;;4.20;2.55;;;13.50;99.90;;;;;;4980125;28;20042;-54
2023/04/24 01:41:07;;;;;;;2.83;1.98;;;13.60;99.90;;;;;;5013035;28;20109;-54
2023/04/24 01:43:33;;;;;;;5.25;2.92;;;13.50;99.90;;;;;;5012982;28;20092;-54
2023/04/24 01:45:59;;;;;;;2.85;2.17;;;13.60;99.90;;;;;;4996243;28;20041;-53
2023/04/24 01:48:25;;;;;;;3.45;2.63;;;13.60;99.90;;;;;;5010690;28;20089;-54
2023/04/24 01:50:51;;;;;;;5.75;2.75;;;13.60;99.90;;;;;;5054393;28;20045;-55
2023/04/24 01:53:16;;;;;;;3.92;2.83;;;13.60;99.90;;;;;;5054553;28;20468;-53
2023/04/24 01:55:42;;;;;;;6.10;2.88;;;13.50;99.90;;;;;;5036000;28;20451;-55
2023/04/24 01:58:08;;;;;;;3.53;2.42;;;13.30;99.90;;;;;;5054615;28;20486;-53
2023/04/24 02:00:34;;;;;;;5.35;2.95;;;13.40;99.90;;;;;;5054167;28;20028;-54
2023/04/24 02:03:01;;;;;;;2.88;2.03;;;13.30;99.90;;;;;;5054417;28;20027;-54
2023/04/24 02:05:27;;;;;;;2.63;2.35;;;13.30;99.90;;;;;;5053996;28;20044;-53
2023/04/24 02:07:53;;;;;;;2.65;1.88;;;13.20;99.90;;;;;;5054059;28;20473;-54
2023/04/24 02:10:19;;;;;;;2.47;2.17;;;13.00;99.90;;;;;;5054399;28;20025;-55
2023/04/24 02:12:45;;;;;;;3.25;1.92;;;12.80;99.90;;;;;;5035544;28;20476;-53
2023/04/24 02:15:11;;;;;;;4.75;2.03;;;12.80;99.90;;;;;;5054077;28;20103;-54
2023/04/24 02:17:37;;;;;;;3.47;2.50;;;12.80;99.90;;;;;;5018622;28;20037;-53
2023/04/24 02:20:04;;;;;;;2.15;1.58;;;12.60;99.90;;;;;;5053629;28;20168;-53
2023/04/24 02:22:30;;;;;;;4.85;2.55;;;12.70;99.90;;;;;;5054071;28;20033;-53
2023/04/24 02:24:55;;;;;;;3.70;2.50;;;12.70;99.90;;;;;;5053770;28;20094;-54
2023/04/24 02:27:21;;;;;;;2.55;1.90;;;12.70;99.90;;;;;;5054199;28;20031;-54
2023/04/24 02:29:47;;;;;;;3.35;2.35;;;12.80;99.90;;;;;;5053613;28;20025;-53
2023/04/24 02:32:15;;;;;;;3.55;2.15;;;12.80;99.90;;;;;;5059618;28;20035;-54
2023/04/24 02:34:40;;;;;;;3.97;2.88;;;12.80;99.90;;;;;;5038985;28;20033;-53
2023/04/24 02:37:06;;;;;;;2.72;2.13;;;12.80;99.90;;;;;;5005232;28;20047;-53
2023/04/24 02:39:32;;;;;;;1.85;1.67;;;12.70;99.90;;;;;;5038537;28;20043;-54
2023/04/24 02:41:58;;;;;;;3.40;2.45;;;12.80;99.90;;;;;;5005495;28;20036;-54
2023/04/24 02:44:23;;;;;;;3.42;2.30;;;12.80;99.90;;;;;;5005493;28;20035;-54
2023/04/24 02:46:49;;;;;;;4.00;1.92;;;12.80;99.90;;;;;;5073435;28;20056;-54
2023/04/24 02:49:15;;;;;;;3.53;2.45;;;12.90;99.90;;;;;;5073750;28;20032;-53
2023/04/24 02:51:41;;;;;;;3.22;2.33;;;12.90;99.90;;;;;;5073265;28;20034;-53
2023/04/24 02:54:09;;;;;;;4.05;2.70;;;12.90;99.90;;;;;;5073291;28;20036;-53
2023/04/24 02:56:35;;;;;;;3.80;2.15;;;13.00;99.90;;;;;;5073270;28;20067;-56
2023/04/24 02:59:01;;;;;;;3.58;2.03;;;13.00;99.90;;;;;;5073487;28;20056;-54
2023/04/24 03:01:27;;;;;;;2.70;2.30;;;13.20;99.90;;;;;;5037916;28;20036;-54
2023/04/24 03:03:52;;;;;;;3.67;3.03;;;13.30;99.90;;;;;;5066746;28;20049;-54
2023/04/24 03:06:18;;;;;;;4.70;2.50;;;13.50;99.90;;;;;;5037055;28;20045;-53
2023/04/24 03:08:44;;;;;;;2.83;2.05;;;13.50;99.90;;;;;;5053150;28;20103;-53
2023/04/24 03:11:10;;;;;;;2.83;2.00;;;13.70;99.90;;;;;;5070313;28;20068;-54
2023/04/24 03:13:36;;;;;;;3.15;2.40;;;13.60;99.90;;;;;;5072971;28;20052;-54
2023/04/24 03:16:01;;;;;;;2.75;2.40;;;13.60;99.90;;;;;;5073292;28;20119;-54
2023/04/24 03:18:27;;;;;;;2.00;1.80;;;13.80;99.90;;;;;;5072935;28;20020;-53
2023/04/24 03:20:53;;;;;;;3.80;2.30;;;13.40;99.90;;;;;;5073214;28;20028;-53
2023/04/24 03:23:18;;;;;;;3.90;2.78;;;13.60;99.90;;;;;;5073274;28;20020;-55
2023/04/24 03:25:45;;;;;;;3.15;2.10;;;13.50;99.90;;;;;;5072767;28;20185;-54
2023/04/24 03:28:10;;;;;;;2.03;1.83;;;13.60;99.90;;;;;;5073310;28;20060;-52
2023/04/24 03:30:36;;;;;;;3.30;2.58;;;13.40;99.90;;;;;;5057145;28;20391;-54
2023/04/24 03:33:02;;;;;;;2.30;2.10;;;13.40;99.90;;;;;;5077111;28;20036;-56
2023/04/24 03:35:28;;;;;;;4.30;2.50;;;13.40;99.90;;;;;;5077171;28;20020;-55
2023/04/24 03:37:53;;;;;;;6.00;2.70;;;13.40;99.90;;;;;;5076957;28;20099;-55
2023/04/24 03:40:19;;;;;;;3.47;2.60;;;13.60;99.90;;;;;;5063194;28;20029;-53
2023/04/24 03:42:44;;;;;;;3.40;2.08;;;13.80;99.90;;;;;;5056702;28;20103;-53
2023/04/24 03:45:10;;;;;;;2.33;1.85;;;13.50;99.90;;;;;;5057096;28;20473;-55
2023/04/24 03:47:36;;;;;;;2.45;2.25;;;13.30;99.90;;;;;;5056639;28;20056;-54
2023/04/24 03:50:02;;;;;;;2.50;2.10;;;13.40;99.90;;;;;;5056413;28;20053;-54
2023/04/24 03:52:28;;;;;;;3.00;2.15;;;13.60;99.90;;;;;;5056948;28;20028;-55
2023/04/24 03:54:54;;;;;;;2.78;1.90;;;13.50;99.90;;;;;;5056511;28;20025;-52
2023/04/24 03:57:20;;;;;;;4.07;2.65;;;13.50;99.90;;;;;;5056764;28;20029;-53
2023/04/24 03:59:45;;;;;;;4.22;2.53;;;13.40;99.90;;;;;;5056470;28;20384;-54
2023/04/24 04:02:11;;;;;;;3.45;2.10;;;13.70;99.90;;;;;;5056498;28;20028;-55
2023/04/24 04:04:37;;;;;;;3.00;2.05;;;13.40;99.90;;;;;;5021368;28;20029;-54
2023/04/24 04:07:02;;;;;;;3.15;1.98;;;13.40;99.90;;;;;;5056635;28;20086;-52
2023/04/24 04:09:29;;;;;;;4.15;2.33;;;13.60;99.90;;;;;;5021483;28;20120;-53
2023/04/24 04:11:55;;;;;;;4.05;2.25;;;13.80;99.90;;;;;;5056321;28;20032;-53
2023/04/24 04:14:21;;;;;;;2.47;2.00;;;14.00;99.90;;;;;;5056315;28;20024;-54
2023/04/24 04:16:47;;;;;;;4.30;2.17;;;14.10;99.90;;;;;;5056390;28;20035;-52
2023/04/24 04:19:13;;;;;;;2.67;2.00;;;14.10;99.90;;;;;;5056364;28;20115;-53
2023/04/24 04:21:38;;;;;;;2.95;1.80;;;14.30;99.90;;;;;;5056205;28;20028;-53
2023/04/24 04:24:05;;;;;;;3.95;1.98;;;14.30;99.90;;;;;;5056364;28;20154;-53
2023/04/24 04:26:32;;;;;;;4.10;1.80;;;14.50;99.90;;;;;;5056318;28;20082;-54
2023/04/24 04:29:00;;;;;;;3.53;1.95;;;14.30;99.90;;;;;;5056020;28;20036;-54
2023/04/24 04:31:26;;;;;;;3.55;2.38;;;14.10;99.90;;;;;;5058213;28;20527;-53
2023/04/24 04:33:51;;;;;;;3.17;2.03;;;14.20;99.90;;;;;;5002103;28;20040;-53
2023/04/24 04:36:17;;;;;;;3.88;2.10;;;14.20;99.90;;;;;;5055954;28;20028;-53
2023/04/24 04:38:44;;;;;;;2.83;2.05;;;14.10;99.90;;;;;;5020853;28;20037;-53
2023/04/24 04:41:10;;;;;;;8.73;2.85;;;14.00;99.90;;;;;;5054961;28;20033;-54
2023/04/24 04:43:38;;;;;;;2.55;1.60;;;14.30;99.90;;;;;;4988286;28;20045;-54
2023/04/24 04:46:03;;;;;;;2.90;2.20;;;14.30;99.90;;;;;;5055553;28;20476;-53
2023/04/24 04:48:31;;;;;;;2.83;2.03;;;14.30;99.90;;;;;;5055741;28;20032;-53
2023/04/24 04:50:57;;;;;;;3.85;2.38;;;14.40;99.90;;;;;;5055625;28;20124;-54
2023/04/24 04:53:24;;;;;;;4.18;2.53;;;14.70;99.90;;;;;;5055846;28;20029;-53
2023/04/24 04:55:50;;;;;;;3.63;2.55;;;14.70;99.90;;;;;;5055495;28;20045;-52
2023/04/24 04:58:15;;;;;;;5.25;2.53;;;14.90;99.90;;;;;;5060309;28;20036;-53
2023/04/24 05:00:42;;;;;;;4.13;2.42;;;15.00;99.90;;;;;;5075396;28;20056;-53
2023/04/24 05:03:08;;;;;;;4.72;2.42;;;14.90;99.90;;;;;;5075345;28;20031;-53
2023/04/24 05:05:33;;;;;;;2.65;2.15;;;14.80;99.90;;;;;;5023540;28;20048;-54
2023/04/24 05:07:59;;;;;;;3.17;2.50;;;14.80;99.90;;;;;;5075816;28;20414;-53
2023/04/24 05:10:25;;;;;;;7.22;3.38;;;15.00;99.90;;;;;;5075275;28;20028;-53
2023/04/24 05:12:50;;;;;;;2.92;2.38;;;15.00;99.90;;;;;;5040035;28;20032;-55
2023/04/24 05:15:16;;;;;;;3.63;2.30;;;15.20;99.90;;;;;;5075453;28;20078;-53
2023/04/24 05:17:42;;;;;;;3.22;2.15;;;;;;;;;;5039945;28;20119;-55
2023/04/24 05:20:09;;;;;;;2.85;2.42;;;;;;;;;;5021983;28;20036;-56
2023/04/24 05:22:35;;;;;;;6.35;3.13;;;15.70;99.90;;;;;;5064399;28;20059;-54
2023/04/24 05:25:02;;;;;;;5.28;3.95;;;15.70;99.90;;;;;;5062721;28;20119;-53
2023/04/24 05:27:28;;;;;;;5.68;4.28;;;;;;;;;;5054737;28;20109;-54
2023/04/24 05:29:54;;;;;;;10.02;6.28;;;16.20;99.90;;;;;;5063570;28;20585;-53
2023/04/24 05:32:20;;;;;;;7.43;3.55;;;16.00;99.90;;;;;;5039428;28;20040;-53
2023/04/24 05:34:46;;;;;;;5.25;2.90;;;15.90;99.90;;;;;;5074916;28;20081;-54
2023/04/24 05:37:12;;;;;;;4.63;3.13;;;16.00;99.90;;;;;;5037399;28;20037;-53
2023/04/24 05:39:37;;;;;;;6.68;3.92;;;15.90;99.90;;;;;;5054688;28;20032;-54
2023/04/24 05:42:04;;;;;;;6.22;3.63;;;16.00;99.90;;;;;;5011064;28;20440;-54
2023/04/24 05:44:30;;;;;;;5.20;3.72;;;16.30;99.90;;;;;;5031001;28;20068;-54
2023/04/24 05:46:56;;;;;;;12.82;4.20;;;16.40;99.90;;;;;;5062750;28;20147;-53
2023/04/24 05:49:22;;;;;;;6.22;3.50;;;16.20;99.90;;;;;;5028143;28;20506;-54
2023/04/24 05:51:49;;;;;;;5.85;3.15;;;16.20;99.90;;;;;;4988129;28;20057;-53
2023/04/24 05:54:15;;;;;;;7.03;3.72;;;16.10;99.90;;;;;;5060489;28;20028;-53
2023/04/24 05:56:40;;;;;;;3.58;2.42;;;16.10;99.90;;;;;;5027533;28;20132;-54
2023/04/24 05:59:07;;;;;;;5.22;2.70;;;16.20;99.90;;;;;;5065713;28;20046;-54
2023/04/24 06:01:33;;;;;;;3.88;2.67;;;16.10;99.90;;;;;;5021426;28;20043;-54
2023/04/24 06:03:59;;;;;;;3.95;2.50;;;16.00;99.90;;;;;;5074113;28;20464;-53
2023/04/24 06:06:25;;;;;;;5.70;2.58;;;16.00;99.90;;;;;;5063377;28;20039;-54
2023/04/24 06:08:51;;;;;;;6.93;2.55;;;15.90;99.90;;;;;;5064419;28;20465;-54
2023/04/24 06:11:17;;;;;;;4.50;2.88;;;15.80;99.90;;;;;;5059178;28;20024;-53
2023/04/24 06:13:43;;;;;;;4.18;3.03;;;16.00;99.90;;;;;;5011156;28;20484;-53
2023/04/24 06:16:08;;;;;;;4.65;2.67;;;16.10;99.90;;;;;;5063588;28;20441;-54
2023/04/24 06:18:34;;;;;;;4.70;2.83;;;16.20;99.90;;;;;;5064313;28;20021;-54
2023/04/24 06:21:00;;;;;;;5.18;2.53;;;16.30;99.90;;;;;;5065536;28;20158;-55
2023/04/24 06:23:26;;;;;;;4.88;2.60;;;16.50;99.90;;;;;;5029221;28;20499;-54
2023/04/24 06:25:52;;;;;;;3.85;2.42;;;16.50;99.90;;;;;;5024524;28;20074;-54
2023/04/24 06:28:17;;;;;;;3.90;2.50;;;16.40;99.90;;;;;;5062979;28;20103;-54
2023/04/24 06:30:43;;;;;;;4.50;2.67;;;16.40;99.90;;;;;;5061543;28;20105;-55
2023/04/24 06:33:09;;;;;;;2.88;2.22;;;16.30;99.90;;;;;;5053741;28;20423;-52
2023/04/24 06:35:37;;;;;;;3.35;2.70;;;16.40;99.90;;;;;;5058375;28;20103;-52
2023/04/24 06:38:03;;;;;;;6.70;3.08;;;16.50;99.90;;;;;;5065477;28;20039;-53
2023/04/24 06:40:30;;;;;;;3.67;2.78;;;16.50;99.90;;;;;;5060339;28;20103;-54
2023/04/24 06:42:57;;;;;;;5.03;2.67;;;16.60;99.90;;;;;;5019009;28;20033;-52
2023/04/24 06:45:23;;;;;;;5.53;2.92;;;16.70;99.90;;;;;;5073360;28;20062;-54
2023/04/24 06:47:49;;;;;;;5.43;3.03;;;16.80;99.90;;;;;;5073367;28;20025;-52
2023/04/24 06:50:14;;;;;;;4.55;2.80;;;16.60;99.90;;;;;;5028754;28;20079;-50
2023/04/24 06:52:40;;;;;;;3.53;2.28;;;16.50;99.90;;;;;;5048734;28;20020;-51
2023/04/24 06:55:07;;;;;;;5.43;2.67;;;16.40;99.90;;;;;;5044090;28;20461;-56
2023/04/24 06:57:32;;;;;;;3.33;2.30;;;16.70;99.90;;;;;;5008797;28;20044;-52
2023/04/24 06:59:58;;;;;;;3.95;3.08;;;16.80;99.90;;;;;;5044396;28;20021;-54
2023/04/24 07:02:25;;;;;;;4.35;3.20;;;16.90;99.90;;;;;;5050288;28;20035;-50
2023/04/24 07:04:50;;;;;;;4.35;2.90;;;16.90;99.90;;;;;;5052654;28;20033;-54
2023/04/24 07:07:16;;;;;;;4.10;2.70;;;17.00;99.90;;;;;;5018147;28;20449;-52
2023/04/24 07:09:44;;;;;;;3.97;3.05;;;;;;;;;;5053013;28;20025;-55
2023/04/24 07:12:10;;;;;;;5.90;3.10;;;;;;;;;;5053588;28;20036;-53
2023/04/24 07:14:37;;;;;;;5.32;2.67;;;;;;;;;;5053119;28;20040;-53
2023/04/24 07:17:04;;;;;;;6.57;3.28;;;;;;;;;;5053175;28;20053;-54
2023/04/24 07:19:30;;;;;;;9.55;3.72;;;;;;;;;;5053347;28;20032;-52
2023/04/24 07:21:58;;;;;;;3.75;2.70;;;;;;;;;;5053207;28;20392;-55
2023/04/24 07:24:24;;;;;;;5.32;2.72;;;;;;;;;;5034573;28;20068;-55
2023/04/24 07:26:51;;;;;;;5.18;3.58;;;;;;;;;;5053066;28;20033;-52
2023/04/24 07:29:18;;;;;;;5.65;3.70;;;;;;;;;;5034563;28;20039;-54
2023/04/24 07:31:44;;;;;;;6.55;4.00;;;;;;;;;;5034444;28;20079;-51
2023/04/24 07:34:10;;;;;;;6.78;3.92;;;;;;;;;;5052887;28;20424;-55
2023/04/24 07:36:38;;;;;;;6.60;3.55;;;;;;;;;;5053210;28;20112;-53
2023/04/24 07:39:04;;;;;;;4.53;3.20;;;;;;;;;;5053042;28;20112;-54
2023/04/24 07:41:30;;;;;;;3.75;2.90;;;;;;;;;;5053377;28;20036;-51
2023/04/24 07:43:57;;;;;;;4.90;2.90;;;;;;;;;;5050846;28;20033;-53
2023/04/24 07:46:23;;;;;;;5.75;3.17;;;;;;;;;;5052542;28;20036;-54
2023/04/24 07:48:49;;;;;;;4.35;3.10;;;;;;;;;;5034235;28;20041;-51
2023/04/24 07:51:16;;;;;;;6.15;3.45;;;;;;;;;;5071232;28;20396;-52
2023/04/24 07:53:42;;;;;;;5.40;3.65;;;16.50;99.90;;;;;;5020930;28;20047;-54
2023/04/24 07:56:08;;;;;;;5.78;4.40;;;16.50;99.90;;;;;;5072710;28;20033;-51
2023/04/24 07:58:34;;;;;;;4.78;2.58;;;16.80;99.90;;;;;;5072748;28;20032;-52
2023/04/24 08:01:00;;;;;;;5.78;5.13;;;17.00;99.90;;;;;;5073109;28;20100;-56
2023/04/24 08:03:26;;;;;;;3.72;2.90;;;17.20;99.90;;;;;;5037435;28;20116;-54
2023/04/24 08:05:51;;;;;;;5.63;3.08;;;17.40;99.90;;;;;;5037415;28;20051;-51
2023/04/24 08:08:17;;;;;;;3.67;2.83;;;17.50;99.90;;;;;;5072602;28;20032;-56
2023/04/24 08:10:43;;;;;;;5.70;3.85;;;17.50;99.90;;;;;;5037615;28;20036;-56
2023/04/24 08:13:11;;;;;;;4.75;2.78;;;17.10;99.90;;;;;;5037246;28;20036;-52
2023/04/24 08:15:37;;;;;;;4.30;2.80;;;16.50;99.90;;;;;;5072945;28;20040;-53
2023/04/24 08:18:02;;;;;;;4.95;2.80;;;16.60;99.90;;;;;;5075891;28;20387;-53
2023/04/24 08:20:28;;;;;;;4.05;3.00;;;16.60;99.90;;;;;;5008011;28;20655;-52
2023/04/24 08:22:54;;;;;;;4.13;2.70;;;16.80;99.90;;;;;;5076067;28;20027;-56
2023/04/24 08:25:22;;;;;;;3.13;2.78;;;16.50;99.90;;;;;;5023889;28;20058;-55
2023/04/24 08:27:48;;;;;;;3.13;2.65;;;16.50;99.90;;;;;;5076000;28;20428;-51
2023/04/24 08:30:14;;;;;;;5.47;3.08;;;16.30;99.90;;;;;;5075850;28;20071;-52
2023/04/24 08:32:40;;;;;;;5.05;2.92;;;16.40;99.90;;;;;;5075851;28;20036;-53
2023/04/24 08:35:08;;;;;;;4.68;3.25;;;16.30;99.90;;;;;;5071506;28;20028;-52
2023/04/24 08:37:34;;;;;;;4.53;2.80;;;16.30;99.90;;;;;;5066946;28;20365;-55
2023/04/24 08:40:02;;;;;;;5.15;3.50;;;16.10;99.90;;;;;;4962904;28;20073;-54
2023/04/24 08:42:33;;;;;;;6.28;4.05;;;16.10;99.90;;;;;;4996589;28;20045;-53
2023/04/24 08:45:05;;;;;;;5.47;3.60;;;16.10;99.90;;;;;;4993951;28;20062;-52
2023/04/24 08:47:32;;;;;;;6.80;3.90;;;16.40;99.90;;;;;;4955085;29;20067;-51
2023/04/24 08:49:59;;;;;;;6.10;4.05;;;16.30;99.90;;;;;;4939143;28;20055;-53
2023/04/24 08:52:25;;;;;;;5.28;3.60;;;16.40;99.90;;;;;;4946056;28;20097;-52
2023/04/24 08:54:53;;;;;;;4.13;3.10;;;16.40;99.90;;;;;;4991314;28;20074;-52
2023/04/24 08:57:19;;;;;;;4.63;2.97;;;16.40;99.90;;;;;;4994106;28;20038;-55
2023/04/24 08:59:45;;;;;;;5.45;3.50;;;16.60;99.90;;;;;;4994041;28;20043;-53
2023/04/24 09:02:12;;;;;;;4.50;3.22;;;16.50;99.90;;;;;;4980698;28;20136;-54
2023/04/24 09:04:38;;;;;;;3.92;3.22;;;16.80;99.90;;;;;;4974217;28;20376;-53
2023/04/24 09:07:05;;;;;;;6.18;3.50;;;16.40;99.90;;;;;;4974489;28;20046;-54
2023/04/24 09:09:32;;;;;;;3.28;2.47;;;16.30;99.90;;;;;;4974173;28;20078;-51
2023/04/24 09:11:58;;;;;;;5.50;3.15;;;16.00;99.90;;;;;;4991589;28;20042;-53
2023/04/24 09:14:25;;;;;;;6.78;3.67;;;15.80;99.90;;;;;;4996613;28;20038;-54
2023/04/24 09:16:51;;;;;;;5.93;3.13;;;15.90;99.90;;;;;;4990653;28;20179;-52
2023/04/24 09:19:21;;;;;;;5.85;3.55;;;16.00;99.90;;;;;;5031003;28;20084;-61
2023/04/24 09:21:47;;;;;;;9.02;3.97;;;16.30;99.90;;;;;;5016134;28;20049;-56
2023/04/24 09:24:22;;;;;;;8.80;3.40;;;16.60;99.90;;;;;;4978225;28;20040;-52
2023/04/24 09:26:49;;;;;;;2.78;1.65;;;16.80;99.90;;;;;;5003771;28;20050;-52
2023/04/24 09:29:18;;;;;;;3.80;3.38;;;16.80;99.90;;;;;;5048026;28;20114;-56
2023/04/24 09:31:45;;;;;;;3.90;3.10;;;17.10;99.90;;;;;;5044024;28;20053;-54
2023/04/24 09:34:11;;;;;;;5.28;3.22;;;17.20;99.90;;;;;;5042004;28;20044;-57
2023/04/24 09:36:44;;;;;;;4.95;3.20;;;17.20;99.90;;;;;;5037394;28;20139;-56
2023/04/24 09:39:15;;;;;;;3.45;3.00;;;17.30;99.90;;;;;;5044998;28;20056;-56
2023/04/24 09:41:50;;;;;;;4.90;3.08;;;17.20;99.90;;;;;;5046365;28;20029;-53
2023/04/24 09:44:22;;;;;;;4.82;3.38;;;17.30;99.90;;;;;;5031078;28;20120;-54
2023/04/24 09:46:51;;;;;;;3.60;2.72;;;17.30;99.90;;;;;;5034655;28;20115;-59
2023/04/24 09:49:26;;;;;;;4.20;3.13;;;17.40;99.90;;;;;;5046155;28;20037;-53
2023/04/24 09:51:52;;;;;;;5.72;3.55;;;17.30;99.90;;;;;;5031381;28;20068;-56
2023/04/24 09:54:20;;;;;;;4.45;3.10;;;17.20;99.90;;;;;;5056997;28;20025;-55
2023/04/24 09:56:48;;;;;;;5.13;3.00;;;17.10;99.90;;;;;;5070659;28;20391;-57
2023/04/24 09:59:15;;;;;;;5.15;2.90;;;17.20;99.90;;;;;;5069258;28;20061;-56
2023/04/24 10:01:42;;;;;;;2.72;2.25;;;17.20;99.90;;;;;;5054795;28;20025;-56
2023/04/24 10:04:28;;;;;;;4.18;2.90;;;17.20;99.90;;;;;;5074090;28;20039;-55
2023/04/24 10:06:57;;;;;;;3.88;2.58;;;17.30;99.90;;;;;;5074229;28;20036;-53
2023/04/24 10:09:25;;;;;;;5.03;3.20;;;17.50;99.90;;;;;;5074414;28;20028;-53
2023/04/24 10:11:53;;;;;;;4.72;2.90;;;17.80;99.90;;;;;;5069966;28;20074;-56
2023/04/24 10:14:21;;;;;;;3.17;2.08;;;17.80;99.90;;;;;;5013335;28;20179;-58
2023/04/24 10:16:47;;;;;;;5.30;2.42;;;17.80;99.90;;;;;;5028677;28;20044;-54
2023/04/24 10:19:15;;;;;;;3.65;2.33;;;17.80;99.90;;;;;;5031154;28;20037;-51
2023/04/24 10:21:47;;;;;;;3.30;2.42;;;;;;;;;;5031662;28;20029;-56
2023/04/24 10:24:17;;;;;;;3.92;1.85;;;16.60;99.90;;;;;;4998621;28;20033;-52
2023/04/24 10:26:45;;;;;;;4.03;2.60;;;17.80;99.90;;;;;;5031498;28;20448;-59
2023/04/24 10:29:12;;;;;;;6.00;2.33;;;17.70;99.90;;;;;;5031718;28;20037;-53
2023/04/24 10:31:38;;;;;;;4.30;2.22;;;17.50;99.90;;;;;;5031749;28;20037;-59
2023/04/24 10:34:09;;;;;;;3.28;2.10;;;17.40;99.90;;;;;;5031597;28;20037;-56
2023/04/24 10:36:39;;;;;;;2.85;1.92;;;17.30;99.90;;;;;;5031683;28;20067;-55
2023/04/24 10:39:08;;;;;;;4.93;3.22;;;17.10;99.90;;;;;;5031091;28;20065;-53
2023/04/24 10:41:37;;;;;;;6.40;3.10;;;17.30;99.90;;;;;;5031564;28;20032;-54
2023/04/24 10:44:14;;;;;;;3.20;1.88;;;17.60;99.90;;;;;;5031436;28;20029;-55
2023/04/24 10:46:44;;;;;;;6.03;1.88;;;17.70;99.90;;;;;;5073622;28;20037;-52
2023/04/24 10:49:09;;;;;;;2.67;2.03;;;17.50;99.90;;;;;;5073101;28;20032;-59
2023/04/24 10:51:55;;;;;;;0.77;0.73;;;17.60;99.90;;;;;;5038531;28;20033;-57
2023/04/24 10:54:30;;;;;;;3.38;2.13;;;17.50;99.90;;;;;;5073391;28;20051;-57
2023/04/24 10:57:30;;;;;;;4.07;2.40;;;17.70;99.90;;;;;;5038345;28;20119;-52
2023/04/24 11:00:15;;;;;;;4.13;1.73;;;17.50;99.90;;;;;;4972556;28;20114;-58
2023/04/24 11:02:48;;;;;;;1.98;1.77;;;17.70;99.90;;;;;;4972421;28;20045;-52
2023/04/24 11:05:16;;;;;;;2.60;2.15;;;17.80;99.90;;;;;;4972238;28;20043;-52
2023/04/24 11:08:10;;;;;;;2.55;2.03;;;18.00;99.90;;;;;;4972512;28;20066;-50
2023/04/24 11:10:39;;;;;;;4.07;2.20;;;18.20;99.90;;;;;;4972437;28;20097;-59
2023/04/24 11:13:05;;;;;;;3.00;2.03;;;18.40;99.90;;;;;;4972360;28;20042;-54
2023/04/24 11:15:31;;;;;;;3.08;1.60;;;;;;;;;;4972256;28;20038;-52
2023/04/24 11:17:57;;;;;;;2.75;1.55;;;18.60;99.90;;;;;;4972378;28;20031;-50
2023/04/24 11:20:26;;;;;;;2.13;1.90;;;18.50;99.90;;;;;;4940226;28;20045;-60
2023/04/24 11:22:57;;;;;;;2.35;1.55;;;18.40;99.90;;;;;;4972279;28;20047;-52
2023/04/24 11:25:24;;;;;;;1.90;1.45;;;18.50;99.90;;;;;;4969786;28;20041;-53
2023/04/24 11:28:02;;;;;;;2.25;1.52;;;18.50;99.90;;;;;;4971872;28;20039;-55
2023/04/24 11:30:30;;;;;;;2.13;1.52;;;18.70;99.90;;;;;;4972213;28;20401;-54
2023/04/24 11:33:05;;;;;;;1.98;1.58;;;18.80;99.90;;;;;;4972111;28;20053;-51
2023/04/24 11:35:37;;;;;;;0.80;0.47;;;18.80;99.90;;;;;;4974094;28;20032;-57
2023/04/24 11:38:04;;;;;;;2.65;1.77;;;18.50;99.90;;;;;;5072890;28;20035;-57
2023/04/24 11:40:30;;;;;;;3.85;1.60;;;18.70;99.90;;;;;;5072650;28;20437;-58
2023/04/24 11:42:55;;;;;;;2.95;1.33;;;19.00;99.90;;;;;;5072799;28;20067;-59
2023/04/24 11:45:27;;;;;;;2.63;1.80;;;19.00;99.90;;;;;;5072996;28;20029;-59
2023/04/24 11:47:53;;;;;;;3.03;2.22;;;19.20;99.90;;;;;;5073111;28;20345;-50
2023/04/24 11:50:22;;;;;;;3.00;2.17;;;19.40;99.90;;;;;;5072601;28;20060;-57
2023/04/24 11:52:49;;;;;;;4.40;2.22;;;19.40;99.90;;;;;;5076065;28;20025;-55
2023/04/24 11:55:15;;;;;;;0.88;0.88;;;19.10;99.90;;;;;;5025481;28;20041;-54
2023/04/24 11:57:51;;;;;;;2.38;1.52;;;18.70;99.90;;;;;;5076484;28;20032;-58
2023/04/24 12:00:21;;;;;;;2.40;2.03;;;18.80;99.90;;;;;;5076664;28;20036;-50
2023/04/24 12:02:48;;;;;;;3.90;1.67;;;18.90;99.90;;;;;;5076676;28;20105;-52
2023/04/24 12:05:26;;;;;;;1.50;1.02;;;19.00;99.90;;;;;;5076696;28;20036;-56
2023/04/24 12:07:53;;;;;;;2.00;1.13;;;19.00;99.90;;;;;;5041607;28;20043;-57
2023/04/24 12:10:24;;;;;;;1.52;1.42;;;19.10;99.90;;;;;;5076470;28;20411;-56
2023/04/24 12:12:51;;;;;;;1.75;1.52;;;19.10;99.90;;;;;;5076466;28;20111;-52
2023/04/24 12:15:18;;;;;;;5.28;1.80;;;19.10;99.90;;;;;;5076470;28;20037;-55
2023/04/24 12:17:44;;;;;;;4.13;1.60;;;19.10;99.90;;;;;;5076632;28;20032;-52
2023/04/24 12:20:11;;;;;;;6.55;1.70;;;19.30;99.90;;;;;;5076284;28;20033;-58
2023/04/24 12:22:47;;;;;;;2.28;1.67;;;19.50;99.90;;;;;;5008253;28;20503;-57
2023/04/24 12:25:15;;;;;;;2.88;2.28;;;;;;;;;;5040850;28;20082;-56
2023/04/24 12:27:41;;;;;;;2.90;1.85;;;;;;;;;;5024464;28;20059;-52
2023/04/24 12:30:11;;;;;;;3.97;2.15;;;;;;;;;;5041269;28;20095;-55
2023/04/24 12:32:45;;;;;;;2.28;1.58;;;21.60;99.90;;;;;;5024753;28;20090;-48
2023/04/24 12:35:11;;;;;;;1.88;1.58;;;20.80;99.90;;;;;;5024274;28;20443;-50
2023/04/24 12:37:39;;;;;;;1.05;0.68;;;20.60;99.90;;;;;;5075844;28;20107;-57
2023/04/24 12:40:08;;;;;;;2.22;1.45;;;20.10;99.90;;;;;;5076215;28;20122;-54
2023/04/24 12:42:34;;;;;;;2.55;1.45;;;20.30;99.90;;;;;;5024664;28;20060;-52
2023/04/24 12:45:03;;;;;;;1.35;1.17;;;20.20;99.90;;;;;;5075781;28;20028;-54
2023/04/24 12:47:30;;;;;;;19.17;1.02;;;20.20;99.90;;;;;;5013764;28;20041;-56
2023/04/24 12:49:56;;;;;;;3.65;1.90;;;20.10;99.90;;;;;;5013800;28;20132;-52
2023/04/24 12:52:25;;;;;;;2.58;1.88;;;20.10;99.90;;;;;;5013925;28;20124;-59
2023/04/24 12:54:56;;;;;;;3.08;1.73;;;20.30;99.90;;;;;;5013845;28;20437;-56